NCAR-RAP Real-Time Weather Data

Output produced by METARs form (19 November 2018  12:15 UTC)
found at http://weather.rap.ucar.edu/surface/
 
Conditions at: KSPG observed 19 November 2018  11:53 UTC
Temperature: 20.0°C (68°F)
Dewpoint: 18.3°C (65°F) [RH = 90%]
Pressure (altimeter): 30.09 inches Hg (1019.0 mb)
[Sea-level pressure: 1018.7 mb]
Winds: from the NNE (30 degrees) at 8 MPH (7 knots; 3.6 m/s)
Visibility: 10 or more miles (16+ km)
Ceiling: 6000 feet AGL
Clouds: broken clouds at 6000 feet AGL
overcast cloud deck at 7500 feet AGL
Present Weather: no significant weather observed at this time
KSPG 191153Z 03007KT 10SM BKN060 OVC075 20/18 A3009 RMK AO2 SLP187 T02000183 10206 20194 53008

Conditions at: KSPG observed 19 November 2018  10:53 UTC
Temperature: 20.0°C (68°F)
Dewpoint: 17.8°C (64°F) [RH = 87%]
Pressure (altimeter): 30.08 inches Hg (1018.7 mb)
[Sea-level pressure: 1018.5 mb]
Winds: from the NE (50 degrees) at 6 MPH (5 knots; 2.6 m/s)
Visibility: 10 or more miles (16+ km)
Ceiling: 6000 feet AGL
Clouds: broken clouds at 6000 feet AGL
Present Weather: automated observation with no human augmentation;
there may or may not be significant weather present at this time
KSPG 191053Z AUTO 05005KT 10SM BKN060 20/18 A3008 RMK AO2 SLP185 T02000178

Conditions at: KSPG observed 19 November 2018  09:53 UTC
Temperature: 20.0°C (68°F)
Dewpoint: 17.8°C (64°F) [RH = 87%]
Pressure (altimeter): 30.07 inches Hg (1018.4 mb)
[Sea-level pressure: 1018.2 mb]
Winds: from the NNE (30 degrees) at 6 MPH (5 knots; 2.6 m/s)
Visibility: 10 or more miles (16+ km)
Ceiling: at least 12,000 feet AGL
Clouds: few clouds at 9000 feet AGL
Present Weather: automated observation with no human augmentation;
there may or may not be significant weather present at this time
KSPG 190953Z AUTO 03005KT 10SM FEW090 20/18 A3007 RMK AO2 SLP182 T02000178

Conditions at: KSPG observed 19 November 2018  08:53 UTC
Temperature: 19.4°C (67°F)
Dewpoint: 17.2°C (63°F) [RH = 87%]
Pressure (altimeter): 30.06 inches Hg (1018.0 mb)
[Sea-level pressure: 1018.0 mb]
Winds: from the N (360 degrees) at 6 MPH (5 knots; 2.6 m/s)
Visibility: 10 or more miles (16+ km)
Ceiling: 8500 feet AGL
Clouds: few clouds at 4100 feet AGL
broken clouds at 8500 feet AGL
Present Weather: automated observation with no human augmentation;
there may or may not be significant weather present at this time
KSPG 190853Z AUTO 36005KT 10SM FEW041 BKN085 19/17 A3006 RMK AO2 SLP180 T01940172 55004

Conditions at: KSPG observed 19 November 2018  07:53 UTC
Temperature: 20.0°C (68°F)
Dewpoint: 17.2°C (63°F) [RH = 84%]
Pressure (altimeter): 30.06 inches Hg (1018.0 mb)
[Sea-level pressure: 1017.8 mb]
Winds: from the N (360 degrees) at 7 MPH (6 knots; 3.1 m/s)
Visibility: 10 or more miles (16+ km)
Ceiling: 6500 feet AGL
Clouds: broken clouds at 6500 feet AGL
Present Weather: automated observation with no human augmentation;
there may or may not be significant weather present at this time
KSPG 190753Z AUTO 36006KT 10SM BKN065 20/17 A3006 RMK AO2 SLP178 T02000172

Conditions at: KSPG observed 19 November 2018  06:53 UTC
Temperature: 20.0°C (68°F)
Dewpoint: 16.1°C (61°F) [RH = 78%]
Pressure (altimeter): 30.06 inches Hg (1018.0 mb)
[Sea-level pressure: 1018.0 mb]
Winds: from the N (360 degrees) at 8 MPH (7 knots; 3.6 m/s)
Visibility: 10 or more miles (16+ km)
Ceiling: 6500 feet AGL
Clouds: overcast cloud deck at 6500 feet AGL
Present Weather: automated observation with no human augmentation;
there may or may not be significant weather present at this time
KSPG 190653Z AUTO 36007KT 10SM OVC065 20/16 A3006 RMK AO2 SLP180 T02000161

Conditions at: KSPG observed 19 November 2018  05:53 UTC
Temperature: 20.0°C (68°F)
Dewpoint: 16.1°C (61°F) [RH = 78%]
Pressure (altimeter): 30.07 inches Hg (1018.4 mb)
[Sea-level pressure: 1018.3 mb]
Winds: from the N (360 degrees) at 7 MPH (6 knots; 3.1 m/s)
Visibility: 10 or more miles (16+ km)
Ceiling: at least 12,000 feet AGL
Clouds: few clouds at 7000 feet AGL
scattered clouds at 9000 feet AGL
Present Weather: automated observation with no human augmentation;
there may or may not be significant weather present at this time
KSPG 190553Z AUTO 36006KT 10SM FEW070 SCT090 20/16 A3007 RMK AO2 SLP183 T02000161 10222 20200 58009

Conditions at: KSPG observed 19 November 2018  04:53 UTC
Temperature: 20.0°C (68°F)
Dewpoint: 15.6°C (60°F) [RH = 76%]
Pressure (altimeter): 30.08 inches Hg (1018.7 mb)
[Sea-level pressure: 1018.5 mb]
Winds: from the N (10 degrees) at 8 MPH (7 knots; 3.6 m/s)
Visibility: 10 or more miles (16+ km)
Ceiling: 7000 feet AGL
Clouds: broken clouds at 7000 feet AGL
overcast cloud deck at 8000 feet AGL
Present Weather: automated observation with no human augmentation;
there may or may not be significant weather present at this time
KSPG 190453Z AUTO 01007KT 10SM BKN070 OVC080 20/16 A3008 RMK AO2 SLP185 T02000156 402560172

Conditions at: KSPG observed 19 November 2018  03:53 UTC
Temperature: 20.6°C (69°F)
Dewpoint: 16.1°C (61°F) [RH = 75%]
Pressure (altimeter): 30.10 inches Hg (1019.4 mb)
[Sea-level pressure: 1019.1 mb]
Winds: from the N (360 degrees) at 9 MPH (8 knots; 4.2 m/s)
Visibility: 10 or more miles (16+ km)
Ceiling: at least 12,000 feet AGL
Clouds: few clouds at 7000 feet AGL
scattered clouds at 9000 feet AGL
Present Weather: automated observation with no human augmentation;
there may or may not be significant weather present at this time
KSPG 190353Z AUTO 36008KT 10SM FEW070 SCT090 21/16 A3010 RMK AO2 SLP191 T02060161

Conditions at: KSPG observed 19 November 2018  02:53 UTC
Temperature: 20.6°C (69°F)
Dewpoint: 16.1°C (61°F) [RH = 75%]
Pressure (altimeter): 30.10 inches Hg (1019.4 mb)
[Sea-level pressure: 1019.3 mb]
Winds: from the N (360 degrees) at 8 MPH (7 knots; 3.6 m/s)
Visibility: 10 or more miles (16+ km)
Ceiling: 6500 feet AGL
Clouds: broken clouds at 6500 feet AGL
broken clouds at 9500 feet AGL
Present Weather: automated observation with no human augmentation;
there may or may not be significant weather present at this time
KSPG 190253Z AUTO 36007KT 10SM BKN065 BKN095 21/16 A3010 RMK AO2 SLP193 T02060161 51007

Conditions at: KSPG observed 19 November 2018  01:53 UTC
Temperature: 21.1°C (70°F)
Dewpoint: 16.7°C (62°F) [RH = 76%]
Pressure (altimeter): 30.10 inches Hg (1019.4 mb)
[Sea-level pressure: 1019.1 mb]
Winds: from the N (360 degrees) at 9 MPH (8 knots; 4.2 m/s)
Visibility: 10 or more miles (16+ km)
Ceiling: 9000 feet AGL
Clouds: broken clouds at 9000 feet AGL
Present Weather: automated observation with no human augmentation;
there may or may not be significant weather present at this time
KSPG 190153Z AUTO 36008KT 10SM BKN090 21/17 A3010 RMK AO2 SLP191 T02110167

Conditions at: KSPG observed 19 November 2018  00:53 UTC
Temperature: 21.7°C (71°F)
Dewpoint: 16.7°C (62°F) [RH = 73%]
Pressure (altimeter): 30.09 inches Hg (1019.0 mb)
[Sea-level pressure: 1019.0 mb]
Winds: from the N (360 degrees) at 10 MPH (9 knots; 4.7 m/s)
Visibility: 10 or more miles (16+ km)
Ceiling: 9000 feet AGL
Clouds: few clouds at 6500 feet AGL
broken clouds at 9000 feet AGL
Present Weather: no significant weather observed at this time
KSPG 190053Z 36009KT 10SM FEW065 BKN090 22/17 A3009 RMK AO2 SLP190 T02170167

Conditions at: KSPG observed 18 November 2018  23:53 UTC
Temperature: 22.2°C (72°F)
Dewpoint: 17.2°C (63°F) [RH = 73%]
Pressure (altimeter): 30.08 inches Hg (1018.7 mb)
[Sea-level pressure: 1018.5 mb]
Winds: from the N (350 degrees) at 7 MPH (6 knots; 3.1 m/s)
Visibility: 10 or more miles (16+ km)
Ceiling: at least 12,000 feet AGL
Clouds: sky clear below 12,000 feet AGL
Present Weather: no significant weather observed at this time
KSPG 182353Z 35006KT 10SM CLR 22/17 A3008 RMK AO2 SLP185 T02220172 10256 20222 53004

Conditions at: KSPG observed 18 November 2018  22:53 UTC
Temperature: 23.3°C (74°F)
Dewpoint: 16.7°C (62°F) [RH = 66%]
Pressure (altimeter): 30.07 inches Hg (1018.4 mb)
[Sea-level pressure: 1018.0 mb]
Winds: from the N (10 degrees) at 7 MPH (6 knots; 3.1 m/s)
Visibility: 10 or more miles (16+ km)
Ceiling: at least 12,000 feet AGL
Clouds: sky clear below 12,000 feet AGL
Present Weather: no significant weather observed at this time
KSPG 182253Z 01006KT 10SM CLR 23/17 A3007 RMK AO2 SLP180 T02330167

Conditions at: KSPG observed 18 November 2018  21:53 UTC
Temperature: 24.4°C (76°F)
Dewpoint: 15.6°C (60°F) [RH = 58%]
Pressure (altimeter): 30.06 inches Hg (1018.0 mb)
[Sea-level pressure: 1017.9 mb]
Winds: calm
Visibility: 10 or more miles (16+ km)
Ceiling: at least 12,000 feet AGL
Clouds: sky clear below 12,000 feet AGL
Present Weather: no significant weather observed at this time
KSPG 182153Z 00000KT 10SM CLR 24/16 A3006 RMK AO2 SLP179 T02440156

Conditions at: KSPG observed 18 November 2018  20:53 UTC
Temperature: 25.0°C (77°F)
Dewpoint: 18.3°C (65°F) [RH = 66%]
Pressure (altimeter): 30.07 inches Hg (1018.4 mb)
[Sea-level pressure: 1018.1 mb]
Winds: from the NNE (30 degrees) at 3 MPH (3 knots; 1.6 m/s)
Visibility: 10 or more miles (16+ km)
Ceiling: at least 12,000 feet AGL
Clouds: sky clear below 12,000 feet AGL
Present Weather: no significant weather observed at this time
KSPG 182053Z 03003KT 10SM CLR 25/18 A3007 RMK AO2 SLP181 T02500183 56016

Conditions at: KSPG observed 18 November 2018  19:53 UTC
Temperature: 24.4°C (76°F)
Dewpoint: 18.3°C (65°F) [RH = 69%]
Pressure (altimeter): 30.08 inches Hg (1018.7 mb)
[Sea-level pressure: 1018.5 mb]
Winds: from the ENE (60 degrees) at 5 MPH (4 knots; 2.1 m/s)
Visibility: 10 or more miles (16+ km)
Ceiling: at least 12,000 feet AGL
Clouds: scattered clouds at 8500 feet AGL
Present Weather: no significant weather observed at this time
KSPG 181953Z 06004KT 10SM SCT085 24/18 A3008 RMK AO2 SLP185 T02440183

Conditions at: KSPG observed 18 November 2018  18:53 UTC
Temperature: 23.9°C (75°F)
Dewpoint: 17.2°C (63°F) [RH = 66%]
Pressure (altimeter): 30.10 inches Hg (1019.4 mb)
[Sea-level pressure: 1019.1 mb]
Winds: from the NE (40 degrees) at 3 MPH (3 knots; 1.6 m/s)
Visibility: 10 or more miles (16+ km)
Ceiling: 8000 feet AGL
Clouds: broken clouds at 8000 feet AGL
Present Weather: no significant weather observed at this time
KSPG 181853Z 04003KT 10SM BKN080 24/17 A3010 RMK AO2 SLP191 T02390172

Conditions at: KSPG observed 18 November 2018  17:53 UTC
Temperature: 22.8°C (73°F)
Dewpoint: 17.2°C (63°F) [RH = 71%]
Pressure (altimeter): 30.12 inches Hg (1020.1 mb)
[Sea-level pressure: 1019.7 mb]
Winds: from the NE (50 degrees) at 7 MPH (6 knots; 3.1 m/s)
Visibility: 10 or more miles (16+ km)
Ceiling: at least 12,000 feet AGL
Clouds: few clouds at 8000 feet AGL
Present Weather: no significant weather observed at this time
KSPG 181753Z 05006KT 10SM FEW080 23/17 A3012 RMK AO2 SLP197 T02280172 10228 20172 58020

Conditions at: KSPG observed 18 November 2018  16:53 UTC
Temperature: 22.2°C (72°F)
Dewpoint: 17.2°C (63°F) [RH = 73%]
Pressure (altimeter): 30.15 inches Hg (1021.1 mb)
[Sea-level pressure: 1020.9 mb]
Winds: from the ENE (60 degrees) at 7 MPH (6 knots; 3.1 m/s)
Visibility: 10 or more miles (16+ km)
Ceiling: 8000 feet AGL
Clouds: overcast cloud deck at 8000 feet AGL
Present Weather: no significant weather observed at this time
KSPG 181653Z 06006KT 10SM OVC080 22/17 A3015 RMK AO2 SLP209 T02220172

Conditions at: KSPG observed 18 November 2018  15:53 UTC
Temperature: 20.0°C (68°F)
Dewpoint: 16.7°C (62°F) [RH = 81%]
Pressure (altimeter): 30.17 inches Hg (1021.8 mb)
[Sea-level pressure: 1021.6 mb]
Winds: from the NE (50 degrees) at 7 MPH (6 knots; 3.1 m/s)
Visibility: 10 or more miles (16+ km)
Ceiling: 7500 feet AGL
Clouds: overcast cloud deck at 7500 feet AGL
Present Weather: no significant weather observed at this time
KSPG 181553Z 05006KT 10SM OVC075 20/17 A3017 RMK AO2 SLP216 T02000167

Conditions at: KSPG observed 18 November 2018  14:53 UTC
Temperature: 19.4°C (67°F)
Dewpoint: 16.7°C (62°F) [RH = 84%]
Pressure (altimeter): 30.17 inches Hg (1021.8 mb)
[Sea-level pressure: 1021.7 mb]
Winds: from the NE (40 degrees) at 6 MPH (5 knots; 2.6 m/s)
Visibility: 10 or more miles (16+ km)
Ceiling: 7500 feet AGL
Clouds: overcast cloud deck at 7500 feet AGL
Present Weather: no significant weather observed at this time
KSPG 181453Z 04005KT 10SM OVC075 19/17 A3017 RMK AO2 SLP217 T01940167 51016

Conditions at: KSPG observed 18 November 2018  13:53 UTC
Temperature: 18.3°C (65°F)
Dewpoint: 16.7°C (62°F) [RH = 90%]
Pressure (altimeter): 30.16 inches Hg (1021.4 mb)
[Sea-level pressure: 1021.3 mb]
Winds: from the NNE (20 degrees) at 8 MPH (7 knots; 3.6 m/s)
Visibility: 10 or more miles (16+ km)
Ceiling: 7500 feet AGL
Clouds: overcast cloud deck at 7500 feet AGL
Present Weather: no significant weather observed at this time
KSPG 181353Z 02007KT 10SM OVC075 18/17 A3016 RMK AO2 SLP213 T01830167

Conditions at: KSPG observed 18 November 2018  12:53 UTC
Temperature: 17.8°C (64°F)
Dewpoint: 16.7°C (62°F) [RH = 93%]
Pressure (altimeter): 30.15 inches Hg (1021.1 mb)
[Sea-level pressure: 1020.8 mb]
Winds: from the NNE (20 degrees) at 10 MPH (9 knots; 4.7 m/s)
Visibility: 10 or more miles (16+ km)
Ceiling: 7500 feet AGL
Clouds: broken clouds at 7500 feet AGL
Present Weather: no significant weather observed at this time
KSPG 181253Z 02009KT 10SM BKN075 18/17 A3015 RMK AO2 SLP208 T01780167

Conditions at: KSPG observed 18 November 2018  11:53 UTC
Temperature: 17.2°C (63°F)
Dewpoint: 16.1°C (61°F) [RH = 93%]
Pressure (altimeter): 30.13 inches Hg (1020.4 mb)
[Sea-level pressure: 1020.1 mb]
Winds: from the N (10 degrees) at 7 MPH (6 knots; 3.1 m/s)
Visibility: 10 or more miles (16+ km)
Ceiling: at least 12,000 feet AGL
Clouds: sky clear below 12,000 feet AGL
Present Weather: no significant weather observed at this time
KSPG 181153Z 01006KT 10SM CLR 17/16 A3013 RMK AO2 SLP201 T01720161 10183 20172 53009

Conditions at: KSPG observed 18 November 2018  10:53 UTC
Temperature: 17.2°C (63°F)
Dewpoint: 16.1°C (61°F) [RH = 93%]
Pressure (altimeter): 30.11 inches Hg (1019.7 mb)
[Sea-level pressure: 1019.6 mb]
Winds: from the NNE (20 degrees) at 6 MPH (5 knots; 2.6 m/s)
Visibility: 10 or more miles (16+ km)
Ceiling: at least 12,000 feet AGL
Clouds: sky clear below 12,000 feet AGL
Present Weather: automated observation with no human augmentation;
there may or may not be significant weather present at this time
KSPG 181053Z AUTO 02005KT 10SM CLR 17/16 A3011 RMK AO2 SLP196 T01720161

Conditions at: KSPG observed 18 November 2018  09:53 UTC
Temperature: 17.2°C (63°F)
Dewpoint: 16.1°C (61°F) [RH = 93%]
Pressure (altimeter): 30.11 inches Hg (1019.7 mb)
[Sea-level pressure: 1019.4 mb]
Winds: from the NNE (20 degrees) at 6 MPH (5 knots; 2.6 m/s)
Visibility: 10 or more miles (16+ km)
Ceiling: at least 12,000 feet AGL
Clouds: sky clear below 12,000 feet AGL
Present Weather: automated observation with no human augmentation;
there may or may not be significant weather present at this time
KSPG 180953Z AUTO 02005KT 10SM CLR 17/16 A3011 RMK AO2 SLP194 T01720161

Conditions at: KSPG observed 18 November 2018  08:53 UTC
Temperature: 17.2°C (63°F)
Dewpoint: 16.1°C (61°F) [RH = 93%]
Pressure (altimeter): 30.10 inches Hg (1019.4 mb)
[Sea-level pressure: 1019.2 mb]
Winds: from the N (10 degrees) at 7 MPH (6 knots; 3.1 m/s)
Visibility: 10 or more miles (16+ km)
Ceiling: at least 12,000 feet AGL
Clouds: sky clear below 12,000 feet AGL
Present Weather: automated observation with no human augmentation;
there may or may not be significant weather present at this time
KSPG 180853Z AUTO 01006KT 10SM CLR 17/16 A3010 RMK AO2 SLP192 T01720161 56005

Conditions at: KSPG observed 18 November 2018  07:53 UTC
Temperature: 17.2°C (63°F)
Dewpoint: 16.1°C (61°F) [RH = 93%]
Pressure (altimeter): 30.10 inches Hg (1019.4 mb)
[Sea-level pressure: 1019.3 mb]
Winds: from the N (10 degrees) at 7 MPH (6 knots; 3.1 m/s)
Visibility: 10 or more miles (16+ km)
Ceiling: at least 12,000 feet AGL
Clouds: sky clear below 12,000 feet AGL
Present Weather: automated observation with no human augmentation;
there may or may not be significant weather present at this time
KSPG 180753Z AUTO 01006KT 10SM CLR 17/16 A3010 RMK AO2 SLP193 T01720161

Conditions at: KSPG observed 18 November 2018  06:53 UTC
Temperature: 18.3°C (65°F)
Dewpoint: 16.1°C (61°F) [RH = 87%]
Pressure (altimeter): 30.11 inches Hg (1019.7 mb)
[Sea-level pressure: 1019.5 mb]
Winds: from the NE (50 degrees) at 12 MPH (10 knots; 5.2 m/s)
Visibility: 10 or more miles (16+ km)
Ceiling: at least 12,000 feet AGL
Clouds: sky clear below 12,000 feet AGL
Present Weather: automated observation with no human augmentation;
there may or may not be significant weather present at this time
KSPG 180653Z AUTO 05010KT 10SM CLR 18/16 A3011 RMK AO2 SLP195 T01830161

Conditions at: KSPG observed 18 November 2018  05:53 UTC
Temperature: 18.3°C (65°F)
Dewpoint: 15.6°C (60°F) [RH = 84%]
Pressure (altimeter): 30.12 inches Hg (1020.1 mb)
[Sea-level pressure: 1019.7 mb]
Winds: from the N (10 degrees) at 6 MPH (5 knots; 2.6 m/s)
Visibility: 10 or more miles (16+ km)
Ceiling: at least 12,000 feet AGL
Clouds: sky clear below 12,000 feet AGL
Present Weather: automated observation with no human augmentation;
there may or may not be significant weather present at this time
KSPG 180553Z AUTO 01005KT 10SM CLR 18/16 A3012 RMK AO2 SLP197 T01830156 10200 20178 55003

Conditions at: KSPG observed 18 November 2018  04:53 UTC
Temperature: 19.4°C (67°F)
Dewpoint: 16.1°C (61°F) [RH = 81%]
Pressure (altimeter): 30.11 inches Hg (1019.7 mb)
[Sea-level pressure: 1019.4 mb]
Winds: from the NE (50 degrees) at 10 MPH (9 knots; 4.7 m/s)
Visibility: 10 or more miles (16+ km)
Ceiling: at least 12,000 feet AGL
Clouds: sky clear below 12,000 feet AGL
Present Weather: automated observation with no human augmentation;
there may or may not be significant weather present at this time
KSPG 180453Z AUTO 05009KT 10SM CLR 19/16 A3011 RMK AO2 SLP194 T01940161 402280133

Conditions at: KSPG observed 18 November 2018  03:53 UTC
Temperature: 18.3°C (65°F)
Dewpoint: 14.4°C (58°F) [RH = 78%]
Pressure (altimeter): 30.11 inches Hg (1019.7 mb)
[Sea-level pressure: 1019.7 mb]
Winds: from the N (10 degrees) at 5 MPH (4 knots; 2.1 m/s)
Visibility: 10 or more miles (16+ km)
Ceiling: at least 12,000 feet AGL
Clouds: sky clear below 12,000 feet AGL
Present Weather: automated observation with no human augmentation;
there may or may not be significant weather present at this time
KSPG 180353Z AUTO 01004KT 10SM CLR 18/14 A3011 RMK AO2 SLP197 T01830144

Conditions at: KSPG observed 18 November 2018  02:53 UTC
Temperature: 18.3°C (65°F)
Dewpoint: 14.4°C (58°F) [RH = 78%]
Pressure (altimeter): 30.12 inches Hg (1020.1 mb)
[Sea-level pressure: 1020.0 mb]
Winds: from the N (360 degrees) at 7 MPH (6 knots; 3.1 m/s)
Visibility: 10 or more miles (16+ km)
Ceiling: at least 12,000 feet AGL
Clouds: sky clear below 12,000 feet AGL
Present Weather: automated observation with no human augmentation;
there may or may not be significant weather present at this time
KSPG 180253Z AUTO 36006KT 10SM CLR 18/14 A3012 RMK AO2 SLP200 T01830144 51003

Conditions at: KSPG observed 18 November 2018  01:53 UTC
Temperature: 18.3°C (65°F)
Dewpoint: 14.4°C (58°F) [RH = 78%]
Pressure (altimeter): 30.12 inches Hg (1020.1 mb)
[Sea-level pressure: 1020.0 mb]
Winds: from the N (360 degrees) at 7 MPH (6 knots; 3.1 m/s)
Visibility: 10 or more miles (16+ km)
Ceiling: at least 12,000 feet AGL
Clouds: sky clear below 12,000 feet AGL
Present Weather: automated observation with no human augmentation;
there may or may not be significant weather present at this time
KSPG 180153Z AUTO 36006KT 10SM CLR 18/14 A3012 RMK AO2 SLP200 T01830144

Conditions at: KSPG observed 18 November 2018  00:53 UTC
Temperature: 18.3°C (65°F)
Dewpoint: 14.4°C (58°F) [RH = 78%]
Pressure (altimeter): 30.12 inches Hg (1020.1 mb)
[Sea-level pressure: 1019.8 mb]
Winds: from the N (350 degrees) at 8 MPH (7 knots; 3.6 m/s)
Visibility: 10 or more miles (16+ km)
Ceiling: at least 12,000 feet AGL
Clouds: sky clear below 12,000 feet AGL
Present Weather: no significant weather observed at this time
KSPG 180053Z 35007KT 10SM CLR 18/14 A3012 RMK AO2 SLP198 T01830144

Conditions at: KSPG observed 17 November 2018  23:53 UTC
Temperature: 18.9°C (66°F)
Dewpoint: 13.9°C (57°F) [RH = 73%]
Pressure (altimeter): 30.11 inches Hg (1019.7 mb)
[Sea-level pressure: 1019.7 mb]
Winds: from the N (350 degrees) at 10 MPH (9 knots; 4.7 m/s)
Visibility: 10 or more miles (16+ km)
Ceiling: at least 12,000 feet AGL
Clouds: sky clear below 12,000 feet AGL
Present Weather: no significant weather observed at this time
KSPG 172353Z 35009KT 10SM CLR 19/14 A3011 RMK AO2 SLP197 T01890139 10228 20189 53008

Conditions at: KSPG observed 17 November 2018  22:53 UTC
Temperature: 20.0°C (68°F)
Dewpoint: 13.3°C (56°F) [RH = 65%]
Pressure (altimeter): 30.11 inches Hg (1019.7 mb)
[Sea-level pressure: 1019.4 mb]
Winds: from the NNW (340 degrees) at 10 MPH (9 knots; 4.7 m/s)
Visibility: 10 or more miles (16+ km)
Ceiling: at least 12,000 feet AGL
Clouds: sky clear below 12,000 feet AGL
Present Weather: no significant weather observed at this time
KSPG 172253Z 34009KT 10SM CLR 20/13 A3011 RMK AO2 SLP194 T02000133

Conditions at: KSPG observed 17 November 2018  21:53 UTC
Temperature: 22.8°C (73°F)
Dewpoint: 11.7°C (53°F) [RH = 50%]
Pressure (altimeter): 30.10 inches Hg (1019.4 mb)
[Sea-level pressure: 1019.1 mb]
Winds: from the N (360 degrees) at 6 MPH (5 knots; 2.6 m/s)
Visibility: 10 or more miles (16+ km)
Ceiling: at least 12,000 feet AGL
Clouds: sky clear below 12,000 feet AGL
Present Weather: no significant weather observed at this time
KSPG 172153Z 36005KT 10SM CLR 23/12 A3010 RMK AO2 SLP191 T02280117

Conditions at: KSPG observed 17 November 2018  20:53 UTC
Temperature: 22.8°C (73°F)
Dewpoint: 12.2°C (54°F) [RH = 51%]
Pressure (altimeter): 30.09 inches Hg (1019.0 mb)
[Sea-level pressure: 1018.9 mb]
Winds: from the N (10 degrees) at 7 MPH (6 knots; 3.1 m/s)
Visibility: 10 or more miles (16+ km)
Ceiling: at least 12,000 feet AGL
Clouds: sky clear below 12,000 feet AGL
Present Weather: no significant weather observed at this time
KSPG 172053Z 01006KT 10SM CLR 23/12 A3009 RMK AO2 SLP189 T02280122 56012

Conditions at: KSPG observed 17 November 2018  19:53 UTC
Temperature: 22.8°C (73°F)
Dewpoint: 12.2°C (54°F) [RH = 51%]
Pressure (altimeter): 30.09 inches Hg (1019.0 mb)
[Sea-level pressure: 1018.9 mb]
Winds: from the NNE (20 degrees) at 5 MPH (4 knots; 2.1 m/s)
Visibility: 10 or more miles (16+ km)
Ceiling: at least 12,000 feet AGL
Clouds: sky clear below 12,000 feet AGL
Present Weather: no significant weather observed at this time
KSPG 171953Z 02004KT 10SM CLR 23/12 A3009 RMK AO2 SLP189 T02280122

Conditions at: KSPG observed 17 November 2018  18:53 UTC
Temperature: 21.7°C (71°F)
Dewpoint: 11.1°C (52°F) [RH = 51%]
Pressure (altimeter): 30.10 inches Hg (1019.4 mb)
[Sea-level pressure: 1019.2 mb]
Winds: from the NNE (30 degrees) at 7 MPH (6 knots; 3.1 m/s)
Visibility: 10 or more miles (16+ km)
Ceiling: at least 12,000 feet AGL
Clouds: sky clear below 12,000 feet AGL
Present Weather: no significant weather observed at this time
KSPG 171853Z 03006KT 10SM CLR 22/11 A3010 RMK AO2 SLP192 T02170111

Conditions at: KSPG observed 17 November 2018  17:53 UTC
Temperature: 20.0°C (68°F)
Dewpoint: 11.7°C (53°F) [RH = 59%]
Pressure (altimeter): 30.12 inches Hg (1020.1 mb)
[Sea-level pressure: 1020.0 mb]
Winds: from the NE (40 degrees) at 8 MPH (7 knots; 3.6 m/s)
Visibility: 10 or more miles (16+ km)
Ceiling: at least 12,000 feet AGL
Clouds: sky clear below 12,000 feet AGL
Present Weather: no significant weather observed at this time
KSPG 171753Z 04007KT 10SM CLR 20/12 A3012 RMK AO2 SLP200 T02000117 10200 20133 58025

Conditions at: KSPG observed 17 November 2018  16:53 UTC
Temperature: 18.3°C (65°F)
Dewpoint: 11.7°C (53°F) [RH = 65%]
Pressure (altimeter): 30.16 inches Hg (1021.4 mb)
[Sea-level pressure: 1021.3 mb]
Winds: from the NE (50 degrees) at 8 MPH (7 knots; 3.6 m/s)
Visibility: 10 or more miles (16+ km)
Ceiling: at least 12,000 feet AGL
Clouds: sky clear below 12,000 feet AGL
Present Weather: no significant weather observed at this time
KSPG 171653Z 05007KT 10SM CLR 18/12 A3016 RMK AO2 SLP213 T01830117

Conditions at: KSPG observed 17 November 2018  15:53 UTC
Temperature: 17.2°C (63°F)
Dewpoint: 11.1°C (52°F) [RH = 67%]
Pressure (altimeter): 30.18 inches Hg (1022.1 mb)
[Sea-level pressure: 1022.1 mb]
Winds: from the NE (50 degrees) at 13 MPH (11 knots; 5.7 m/s)
Visibility: 10 or more miles (16+ km)
Ceiling: at least 12,000 feet AGL
Clouds: sky clear below 12,000 feet AGL
Present Weather: no significant weather observed at this time
KSPG 171553Z 05011KT 10SM CLR 17/11 A3018 RMK AO2 SLP221 T01720111

Conditions at: KSPG observed 17 November 2018  14:53 UTC
Temperature: 16.1°C (61°F)
Dewpoint: 9.4°C (49°F) [RH = 64%]
Pressure (altimeter): 30.20 inches Hg (1022.8 mb)
[Sea-level pressure: 1022.5 mb]
Winds: from the NE (40 degrees) at 12 MPH (10 knots; 5.2 m/s)
Visibility: 10 or more miles (16+ km)
Ceiling: at least 12,000 feet AGL
Clouds: sky clear below 12,000 feet AGL
Present Weather: no significant weather observed at this time
KSPG 171453Z 04010KT 10SM CLR 16/09 A3020 RMK AO2 SLP225 T01610094 51011

Conditions at: KSPG observed 17 November 2018  13:53 UTC
Temperature: 15.0°C (59°F)
Dewpoint: 8.9°C (48°F) [RH = 67%]
Pressure (altimeter): 30.19 inches Hg (1022.4 mb)
[Sea-level pressure: 1022.3 mb]
Winds: from the NE (40 degrees) at 16 MPH (14 knots; 7.3 m/s)
Visibility: 10 or more miles (16+ km)
Ceiling: at least 12,000 feet AGL
Clouds: sky clear below 12,000 feet AGL
Present Weather: no significant weather observed at this time
KSPG 171353Z 04014KT 10SM CLR 15/09 A3019 RMK AO2 SLP223 T01500089

Conditions at: KSPG observed 17 November 2018  12:53 UTC
Temperature: 14.4°C (58°F)
Dewpoint: 9.4°C (49°F) [RH = 72%]
Pressure (altimeter): 30.18 inches Hg (1022.1 mb)
[Sea-level pressure: 1022.1 mb]
Winds: from the NNE (30 degrees) at 13 MPH (11 knots; 5.7 m/s)
Visibility: 10 or more miles (16+ km)
Ceiling: at least 12,000 feet AGL
Clouds: sky clear below 12,000 feet AGL
Present Weather: no significant weather observed at this time
KSPG 171253Z 03011KT 10SM CLR 14/09 A3018 RMK AO2 SLP221 T01440094